Time;durP1;ratioP1;P1;durP2;ratioP2;P2;SDS_P1;SDS_P2;PMS_P1;PMS_P2;Temp;Humidity;BMP_temperature;BMP_pressure;BME280_temperature;BME280_humidity;BME280_pressure;Samples;Min_cycle;Max_cycle;Signal;HPM_P1;HPM_P2
2023/01/20 00:00:19;;;;;;;1.95;1.23;;;;;;;18.25;34.82;100991.75;16128341;19;129500;-55
2023/01/20 00:05:50;;;;;;;5.90;1.52;;;;;;;18.21;34.94;101018.25;16126587;19;129617;-53
2023/01/20 00:11:11;;;;;;;4.35;1.60;;;;;;;18.15;34.96;101011.75;16128214;19;129650;-51
2023/01/20 00:16:33;;;;;;;2.63;1.67;;;;;;;18.11;35.11;101013.31;16126730;19;130023;-55
2023/01/20 00:21:55;;;;;;;2.63;1.40;;;;;;;18.06;35.31;101016.81;16126083;19;129462;-53
2023/01/20 00:27:17;;;;;;;5.75;1.65;;;;;;;18.03;35.17;101028.34;16129373;19;129300;-53
2023/01/20 00:32:44;;;;;;;3.67;1.50;;;;;;;17.99;35.11;101021.59;16130908;19;129016;-51
2023/01/20 00:38:05;;;;;;;1.77;1.33;;;;;;;17.95;35.40;101025.94;16130104;19;129583;-51
2023/01/20 00:43:27;;;;;;;1.77;1.42;;;;;;;17.90;35.13;101032.19;16128108;19;132994;-54
2023/01/20 00:48:49;;;;;;;1.45;1.35;;;;;;;17.88;35.27;101044.56;16126799;19;129850;-56
2023/01/20 00:54:11;;;;;;;1.83;1.30;;;;;;;17.84;35.42;101042.31;16128707;19;129136;-55
2023/01/20 00:59:33;;;;;;;2.97;1.42;;;;;;;17.80;35.51;101046.63;16126744;19;129869;-53
2023/01/20 01:04:54;;;;;;;1.83;1.35;;;;;;;17.77;35.31;101051.78;16126147;19;129220;-52
2023/01/20 01:10:16;;;;;;;3.65;1.35;;;;;;;17.74;35.31;101053.09;16127477;19;129085;-53
2023/01/20 01:15:38;;;;;;;2.35;1.52;;;;;;;17.71;35.26;101059.13;16127204;19;129596;-53
2023/01/20 01:21:08;;;;;;;2.85;1.63;;;;;;;17.69;35.44;101073.16;16127673;19;129346;-54
2023/01/20 01:26:30;;;;;;;3.05;1.60;;;;;;;17.64;35.60;101081.34;16126196;19;129872;-55
2023/01/20 01:31:52;;;;;;;2.05;1.45;;;;;;;17.63;35.63;101084.34;16127175;19;129447;-53
2023/01/20 01:37:13;;;;;;;2.42;1.40;;;;;;;17.60;35.42;101102.25;16126732;19;129316;-51
2023/01/20 01:42:35;;;;;;;3.30;1.60;;;;;;;17.57;35.38;101101.88;16121542;19;129742;-55
2023/01/20 01:48:08;;;;;;;1.80;1.50;;;;;;;17.55;35.44;101104.88;16124144;19;130912;-55
2023/01/20 01:53:35;;;;;;;2.03;1.70;;;;;;;17.53;35.57;101107.84;16122694;19;129906;-55
2023/01/20 01:59:00;;;;;;;2.55;1.60;;;;;;;17.50;35.43;101113.03;16124182;19;129930;-57
2023/01/20 02:04:24;;;;;;;2.88;1.63;;;;;;;17.47;35.39;101106.03;16124281;19;129421;-58
2023/01/20 02:09:46;;;;;;;2.70;1.92;;;;;;;17.45;35.43;101110.97;16124946;19;130412;-51
2023/01/20 02:15:08;;;;;;;2.15;1.63;;;;;;;17.42;35.26;101114.19;16126312;19;131386;-56
2023/01/20 02:20:35;;;;;;;2.97;1.92;;;;;;;17.40;35.11;101105.28;16123905;19;129452;-51
2023/01/20 02:26:06;;;;;;;2.63;1.60;;;;;;;17.38;35.21;101121.25;16122557;19;129283;-54
2023/01/20 02:31:46;;;;;;;1.85;1.30;;;;;;;17.37;35.52;101119.56;16119696;19;129783;-54
2023/01/20 02:37:15;;;;;;;2.92;1.60;;;;;;;17.34;35.13;101104.28;16121760;19;129567;-52
2023/01/20 02:43:01;;;;;;;1.92;1.25;;;;;;;17.32;35.43;101105.59;16118952;19;129694;-54
2023/01/20 02:48:43;;;;;;;3.10;1.33;;;;;;;17.32;35.60;101100.06;16117793;19;131257;-51
2023/01/20 02:54:09;;;;;;;3.25;1.63;;;;;;;17.28;35.35;101096.94;16119730;19;130674;-55
2023/01/20 02:59:36;;;;;;;2.72;1.40;;;;;;;17.26;35.27;101101.00;16118738;19;129544;-51
2023/01/20 03:05:08;;;;;;;1.83;1.33;;;;;;;17.24;35.42;101104.81;16120739;19;129848;-59
2023/01/20 03:10:32;;;;;;;2.00;1.33;;;;;;;17.21;35.32;101110.84;16130474;19;130669;-59
2023/01/20 03:15:56;;;;;;;2.38;1.50;;;;;;;17.19;35.52;101118.53;16138269;19;130969;-58
2023/01/20 03:21:18;;;;;;;2.58;1.50;;;;;;;17.19;35.33;101117.66;16134097;19;130750;-54
2023/01/20 03:26:40;;;;;;;1.77;1.38;;;;;;;17.16;35.26;101116.22;16132138;19;132439;-52
2023/01/20 03:32:06;;;;;;;3.15;1.67;;;;;;;17.15;35.35;101122.81;16132543;19;129491;-54
2023/01/20 03:37:28;;;;;;;;;;;;;;;17.10;35.59;101121.81;16132906;19;131411;-55
2023/01/20 03:43:30;;;;;;;1.95;1.40;;;;;;;17.12;35.45;101131.56;16133362;19;129351;-55
2023/01/20 03:49:03;;;;;;;2.08;1.48;;;;;;;17.09;35.41;101134.81;16133352;19;129133;-55
2023/01/20 03:54:36;;;;;;;1.88;1.58;;;;;;;17.07;35.36;101136.97;16134472;19;129364;-53
2023/01/20 03:59:59;;;;;;;1.95;1.58;;;;;;;17.04;35.23;101140.19;16134067;19;131293;-52
2023/01/20 04:05:21;;;;;;;2.22;1.38;;;;;;;17.03;35.32;101135.72;16133195;19;130344;-56
2023/01/20 04:10:45;;;;;;;1.55;1.38;;;;;;;17.02;35.27;101139.56;16133348;19;131493;-53
2023/01/20 04:16:15;;;;;;;1.80;1.52;;;;;;;17.02;35.52;101134.88;16134095;19;131384;-54
2023/01/20 04:21:42;;;;;;;1.85;1.40;;;;;;;16.99;35.45;101137.25;16131640;19;129493;-53
2023/01/20 04:27:04;;;;;;;2.38;1.60;;;;;;;16.97;35.22;101143.00;16129338;19;129086;-55
2023/01/20 04:32:25;;;;;;;1.85;1.45;;;;;;;16.96;35.19;101140.50;16130719;19;130247;-55
2023/01/20 04:37:47;;;;;;;1.77;1.30;;;;;;;16.94;35.43;101135.16;16133060;19;134737;-53
2023/01/20 04:43:10;;;;;;;1.70;1.40;;;;;;;16.92;35.44;101137.34;16130219;19;129307;-53
2023/01/20 04:48:32;;;;;;;3.15;1.80;;;;;;;16.91;35.39;101144.78;16129049;19;130516;-52
2023/01/20 04:53:58;;;;;;;2.25;1.70;;;;;;;16.91;35.57;101150.31;16129123;19;129645;-55
2023/01/20 04:59:20;;;;;;;1.42;1.10;;;;;;;16.88;35.33;101161.81;16128774;19;130233;-55
2023/01/20 05:04:41;;;;;;;2.17;1.50;;;;;;;16.87;35.17;101154.59;16129511;19;129422;-56
2023/01/20 05:10:04;;;;;;;2.10;1.60;;;;;;;16.85;35.35;101162.28;16128109;19;129386;-51
2023/01/20 05:15:26;;;;;;;2.25;1.50;;;;;;;16.85;35.13;101162.28;16129333;19;129249;-55
2023/01/20 05:20:49;;;;;;;3.65;1.58;;;;;;;16.84;35.27;101157.84;16128718;19;129494;-53
2023/01/20 05:26:10;;;;;;;1.77;1.40;;;;;;;16.82;35.52;101161.88;16126230;19;129902;-57
2023/01/20 05:31:32;;;;;;;1.38;1.27;;;;;;;16.81;35.43;101166.56;16123770;19;129250;-52
2023/01/20 05:36:54;;;;;;;1.70;1.45;;;;;;;16.80;35.50;101161.28;16124329;19;129012;-52
2023/01/20 05:42:16;;;;;;;2.10;1.30;;;;;;;16.78;35.39;101158.72;16125860;19;129449;-52
2023/01/20 05:47:38;;;;;;;3.08;1.77;;;;;;;16.77;35.48;101165.31;16122860;19;129967;-54
2023/01/20 05:52:59;;;;;;;2.65;1.70;;;;;;;16.75;34.94;101157.28;16124660;19;131280;-50
2023/01/20 05:58:21;;;;;;;2.15;1.70;;;;;;;16.74;35.46;101165.78;16123517;19;129614;-55
2023/01/20 06:03:43;;;;;;;2.15;1.35;;;;;;;16.73;35.32;101164.94;16125377;19;131298;-50
2023/01/20 06:09:05;;;;;;;1.67;1.35;;;;;;;16.86;35.07;101157.59;16126193;19;129751;-51
2023/01/20 06:14:27;;;;;;;2.10;1.40;;;;;;;17.30;34.92;101157.53;16124257;19;129358;-52
2023/01/20 06:19:49;;;;;;;2.65;1.70;;;;;;;17.79;34.03;101157.53;16124076;19;129671;-49
2023/01/20 06:25:10;;;;;;;3.92;2.47;;;;;;;18.11;33.62;101157.28;16121689;19;130657;-47
2023/01/20 06:30:33;;;;;;;9.30;2.78;;;;;;;18.43;32.97;101165.31;16120516;19;130859;-54
2023/01/20 06:35:56;;;;;;;8.35;3.38;;;;;;;18.82;32.17;101167.63;16122321;19;129892;-53
2023/01/20 06:41:19;;;;;;;10.07;2.47;;;;;;;19.29;31.96;101164.81;16115139;19;129440;-55
2023/01/20 06:46:41;;;;;;;8.90;2.50;;;;;;;19.60;31.76;101168.19;16118777;19;129391;-55
2023/01/20 06:52:02;;;;;;;5.82;2.30;;;;;;;19.72;31.23;101170.94;16122422;19;130999;-54
2023/01/20 06:57:24;;;;;;;7.57;2.22;;;;;;;19.66;31.10;101174.69;16118083;19;129453;-52
2023/01/20 07:02:48;;;;;;;6.95;2.20;;;;;;;19.54;31.26;101163.66;16120816;19;129761;-56
2023/01/20 07:08:10;;;;;;;7.63;2.10;;;;;;;19.40;31.84;101174.16;16120064;19;129958;-56
2023/01/20 07:13:32;;;;;;;6.30;2.00;;;;;;;19.21;31.51;101179.91;16115718;19;130935;-55
2023/01/20 07:18:54;;;;;;;5.70;2.17;;;;;;;19.05;31.82;101188.91;16117642;19;129884;-51
2023/01/20 07:24:16;;;;;;;3.47;2.00;;;;;;;18.88;32.39;101186.03;16115672;19;129629;-51
2023/01/20 07:29:39;;;;;;;4.43;1.85;;;;;;;18.71;32.16;101200.63;16117897;19;129947;-55
2023/01/20 07:35:01;;;;;;;4.47;1.55;;;;;;;18.58;32.72;101223.03;16115344;19;129290;-52
2023/01/20 07:40:22;;;;;;;6.60;2.00;;;;;;;18.56;32.71;101220.50;16116414;19;131527;-53
2023/01/20 07:45:44;;;;;;;3.75;2.00;;;;;;;18.69;32.48;101224.97;16119098;19;129480;-57
2023/01/20 07:51:09;;;;;;;4.80;1.70;;;;;;;19.03;32.14;101216.91;16117789;19;130026;-55
2023/01/20 07:56:30;;;;;;;2.45;1.40;;;;;;;19.46;32.00;101216.75;16122634;19;129652;-52
2023/01/20 08:01:52;;;;;;;1.80;1.15;;;;;;;19.87;31.61;101214.81;16131517;19;129497;-52
2023/01/20 08:07:14;;;;;;;3.97;1.52;;;;;;;20.20;30.94;101216.00;16132162;19;129380;-57
2023/01/20 08:12:35;;;;;;;4.47;1.58;;;;;;;20.49;31.13;101206.78;16132184;19;129914;-53
2023/01/20 08:17:58;;;;;;;3.63;1.45;;;;;;;20.71;31.01;101220.75;16129405;19;130603;-56
2023/01/20 08:23:20;;;;;;;3.42;1.60;;;;;;;20.93;30.45;101223.63;16128456;19;129464;-52
2023/01/20 08:28:42;;;;;;;2.58;1.38;;;;;;;21.08;30.17;101227.75;16128843;19;131288;-55
2023/01/20 08:34:04;;;;;;;4.47;1.23;;;;;;;21.06;30.16;101228.84;16128031;19;129356;-50
2023/01/20 08:39:26;;;;;;;5.35;1.90;;;;;;;20.97;30.23;101227.59;16127769;19;130273;-55
2023/01/20 08:44:51;;;;;;;3.60;1.50;;;;;;;20.80;30.31;101230.38;16131042;19;134545;-54
2023/01/20 08:50:14;;;;;;;7.22;1.60;;;;;;;20.53;30.48;101225.47;16129918;19;130297;-48
2023/01/20 08:55:36;;;;;;;4.32;1.73;;;;;;;20.31;30.74;101230.09;16124149;19;131534;-54
2023/01/20 09:00:58;;;;;;;8.10;1.45;;;;;;;20.08;30.58;101229.09;16126606;19;129491;-52
2023/01/20 09:06:21;;;;;;;11.88;1.73;;;;;;;19.86;30.87;101221.44;16122100;19;129881;-55
2023/01/20 09:11:49;;;;;;;5.32;1.77;;;;;;;19.64;31.27;101224.91;16120626;19;131170;-53
2023/01/20 09:17:13;;;;;;;6.45;1.60;;;;;;;19.45;31.29;101231.69;16124972;19;129542;-53
2023/01/20 09:22:35;;;;;;;6.55;1.65;;;;;;;19.31;31.67;101240.31;16120830;19;130038;-49
2023/01/20 09:28:00;;;;;;;6.32;1.38;;;;;;;19.18;32.08;101246.09;16120586;19;130122;-54
2023/01/20 09:33:22;;;;;;;8.02;1.45;;;;;;;19.06;32.03;101246.94;16121385;19;129512;-49
2023/01/20 09:44:44;;;;;;;3.63;1.40;;;;;;;18.82;32.18;101240.53;16119601;19;130503;-50
2023/01/20 09:55:56;;;;;;;2.75;1.40;;;;;;;18.75;32.64;101246.19;16120288;19;129791;-51
2023/01/20 10:01:23;;;;;;;4.20;1.10;;;;;;;18.89;32.27;101251.50;16121895;19;130599;-50
2023/01/20 10:06:47;;;;;;;3.35;1.25;;;;;;;19.06;32.36;101230.28;16124435;19;129340;-51
2023/01/20 10:12:18;;;;;;;5.07;1.33;;;;;;;19.24;32.05;101241.53;16122209;19;129797;-51
2023/01/20 10:17:46;;;;;;;4.25;1.20;;;;;;;19.38;32.27;101254.88;16119687;19;129304;-51
2023/01/20 10:23:40;;;;;;;3.50;0.73;;;;;;;19.52;31.67;101260.16;16121474;19;134102;-52
2023/01/20 10:29:05;;;;;;;3.67;1.10;;;;;;;19.63;31.96;101273.19;16124165;19;129597;-52
2023/01/20 10:34:42;;;;;;;2.03;1.00;;;;;;;19.74;31.32;101290.03;16120495;19;130135;-52
2023/01/20 10:40:23;;;;;;;2.08;1.00;;;;;;;19.81;31.67;101286.03;16125387;19;129477;-56
2023/01/20 10:46:02;;;;;;;4.35;1.50;;;;;;;19.82;31.53;101279.41;16123871;19;130697;-56
2023/01/20 10:51:33;;;;;;;2.95;1.50;;;;;;;19.78;31.25;101291.25;16122579;19;131221;-53
2023/01/20 10:56:58;;;;;;;3.13;1.15;;;;;;;19.72;31.39;101286.66;16121417;19;129559;-49
2023/01/20 11:02:27;;;;;;;4.67;1.20;;;;;;;19.64;31.29;101283.19;16120356;19;129419;-50
2023/01/20 11:07:52;;;;;;;1.58;1.00;;;;;;;19.59;31.65;101283.06;16120650;19;129425;-53
2023/01/20 11:13:14;;;;;;;2.47;1.00;;;;;;;19.52;31.87;101305.41;16120218;19;129507;-50
2023/01/20 11:18:36;;;;;;;2.15;0.95;;;;;;;19.48;31.56;101303.34;16119394;19;129647;-58
2023/01/20 11:23:58;;;;;;;3.05;1.38;;;;;;;19.42;31.53;101287.69;16123495;19;130563;-57
2023/01/20 11:29:20;;;;;;;7.45;1.60;;;;;;;19.34;31.53;101281.41;16120308;19;129599;-57
2023/01/20 11:34:48;;;;;;;4.68;1.80;;;;;;;19.33;31.68;101285.28;16135784;19;129386;-58
2023/01/20 11:40:21;;;;;;;4.75;1.45;;;;;;;19.29;31.93;101286.88;16131644;19;130808;-54
2023/01/20 11:45:43;;;;;;;4.75;1.10;;;;;;;19.24;31.67;101308.09;16134465;19;129525;-52
2023/01/20 11:51:18;;;;;;;6.38;1.40;;;;;;;19.19;31.79;101301.28;16132785;19;130965;-54
2023/01/20 11:56:43;;;;;;;7.10;1.33;;;;;;;19.14;31.92;101298.38;16129922;19;129367;-55
2023/01/20 12:02:07;;;;;;;4.68;1.73;;;;;;;19.13;32.12;101301.41;16132092;19;129717;-56
2023/01/20 12:07:44;;;;;;;4.07;1.43;;;;;;;19.12;31.80;101296.94;16132908;19;129718;-52
2023/01/20 12:13:11;;;;;;;7.35;1.35;;;;;;;19.10;31.64;101293.56;16132842;19;129542;-50
2023/01/20 12:18:39;;;;;;;4.80;1.30;;;;;;;19.07;32.06;101293.00;16128481;19;129322;-53
2023/01/20 12:24:26;;;;;;;10.45;1.80;;;;;;;19.04;31.65;101299.00;16128906;19;130494;-58
2023/01/20 12:30:14;;;;;;;8.75;1.88;;;;;;;19.02;31.26;101292.00;16132952;19;133080;-59
2023/01/20 12:35:50;;;;;;;4.03;1.60;;;;;;;19.02;31.46;101289.22;16129322;19;129758;-55
2023/01/20 12:41:43;;;;;;;5.43;1.40;;;;;;;19.02;31.03;101279.00;16136014;19;129758;-57
2023/01/20 12:47:26;;;;;;;8.27;1.55;;;;;;;19.00;31.20;101281.16;16129362;19;129496;-55
2023/01/20 12:53:12;;;;;;;8.50;1.38;;;;;;;18.92;31.15;101289.84;16129410;19;130226;-59
2023/01/20 12:58:47;;;;;;;5.63;1.20;;;;;;;18.85;31.08;101316.81;16126550;19;129649;-58
2023/01/20 13:04:47;;;;;;;12.88;1.40;;;;;;;18.82;31.01;101317.31;16128662;19;129945;-55
2023/01/20 13:10:12;;;;;;;12.25;1.65;;;;;;;18.76;30.99;101300.53;16127781;19;129298;-57
2023/01/20 13:15:58;;;;;;;8.20;1.50;;;;;;;18.74;31.49;101304.63;16127753;19;129852;-58
2023/01/20 13:21:20;;;;;;;13.65;1.58;;;;;;;18.75;31.30;101284.97;16128147;19;129675;-58
2023/01/20 13:26:42;;;;;;;14.98;1.98;;;;;;;18.83;30.95;101269.94;16127985;19;130211;-58
2023/01/20 13:32:26;;;;;;;12.57;1.33;;;;;;;18.94;31.04;101282.13;16125852;19;131879;-49
2023/01/20 13:38:00;;;;;;;10.85;1.25;;;;;;;19.04;31.13;101281.50;16121644;19;130482;-46
2023/01/20 13:43:22;;;;;;;10.85;1.20;;;;;;;19.21;30.75;101271.44;16125171;19;130586;-50
2023/01/20 13:49:12;;;;;;;10.30;1.02;;;;;;;19.43;30.65;101279.13;16125063;19;129974;-46
2023/01/20 13:54:40;;;;;;;8.77;1.05;;;;;;;19.60;31.06;101312.50;16120143;19;129902;-48
2023/01/20 14:00:11;;;;;;;5.28;0.93;;;;;;;19.78;30.94;101310.69;16126866;19;133967;-49
2023/01/20 14:05:32;;;;;;;10.45;1.65;;;;;;;19.90;30.68;101299.53;16122068;19;130661;-49
2023/01/20 14:11:25;;;;;;;7.03;0.98;;;;;;;20.00;30.62;101305.31;16121430;19;129976;-50
2023/01/20 14:16:47;;;;;;;8.20;1.17;;;;;;;20.04;31.12;101300.97;16121658;19;129374;-49
2023/01/20 14:22:23;;;;;;;9.18;0.82;;;;;;;20.03;30.49;101337.34;16120396;19;129573;-47
2023/01/20 14:27:45;;;;;;;10.55;1.30;;;;;;;19.86;30.29;101365.00;16123108;19;129297;-48
2023/01/20 14:33:09;;;;;;;5.05;0.93;;;;;;;19.65;29.92;101320.09;16111706;19;130771;-49
2023/01/20 14:38:38;;;;;;;6.22;0.88;;;;;;;19.49;29.81;101305.91;16107958;19;131262;-47
2023/01/20 14:44:22;;;;;;;5.93;1.20;;;;;;;19.35;30.29;101305.31;16118741;19;129966;-48
2023/01/20 14:49:47;;;;;;;6.55;1.05;;;;;;;19.24;30.30;101308.91;16114623;19;129259;-49
2023/01/20 14:55:30;;;;;;;2.77;0.97;;;;;;;19.25;30.19;101315.34;16116408;19;129548;-51
2023/01/20 15:00:58;;;;;;;2.80;0.82;;;;;;;19.30;30.37;101327.41;16117845;19;129715;-46
2023/01/20 15:06:21;;;;;;;4.35;1.00;;;;;;;19.39;30.07;101341.72;16115209;19;129586;-47
2023/01/20 15:11:44;;;;;;;6.95;0.82;;;;;;;19.48;30.07;101358.84;16117092;19;131976;-47
2023/01/20 15:17:08;;;;;;;4.38;0.60;;;;;;;19.59;29.98;101371.88;16115395;19;129340;-51
2023/01/20 15:22:29;;;;;;;11.15;1.38;;;;;;;19.54;29.88;101357.91;16114958;19;130909;-47
2023/01/20 15:27:53;;;;;;;10.52;1.15;;;;;;;19.48;29.99;101376.38;16115515;19;129564;-46
2023/01/20 15:33:14;;;;;;;12.90;1.50;;;;;;;19.47;29.87;101368.25;16113716;19;130619;-47
2023/01/20 15:38:36;;;;;;;11.18;1.42;;;;;;;19.48;29.43;101372.72;16113163;19;129911;-47
2023/01/20 15:43:58;;;;;;;8.13;1.42;;;;;;;19.53;29.41;101393.13;16115042;19;129957;-47
2023/01/20 15:49:20;;;;;;;11.20;1.55;;;;;;;19.55;29.72;101409.56;16114572;19;129262;-46
2023/01/20 15:54:42;;;;;;;9.38;1.00;;;;;;;19.54;29.98;101416.19;16115319;19;129750;-47
2023/01/20 16:00:05;;;;;;;19.15;1.73;;;;;;;19.57;29.45;101420.41;16116994;19;129554;-47
2023/01/20 16:05:27;;;;;;;15.43;1.50;;;;;;;19.59;29.47;101424.63;16113034;19;129450;-45
2023/01/20 16:10:49;;;;;;;11.32;1.60;;;;;;;19.53;29.59;101426.41;16112875;19;129457;-49
2023/01/20 16:16:17;;;;;;;29.73;1.85;;;;;;;19.43;30.19;101428.13;16115313;19;129347;-46
2023/01/20 16:21:39;;;;;;;17.48;2.05;;;;;;;19.34;30.55;101436.78;16127534;19;129386;-47
2023/01/20 16:27:03;;;;;;;21.33;2.30;;;;;;;19.28;31.55;101454.38;16125530;19;130577;-45
2023/01/20 16:32:25;;;;;;;15.80;2.08;;;;;;;19.24;32.70;101464.25;16126690;19;130306;-46
2023/01/20 16:37:47;;;;;;;23.25;2.00;;;;;;;19.21;32.73;101473.91;16128576;19;130344;-47
2023/01/20 16:43:08;;;;;;;9.35;1.20;;;;;;;19.21;33.15;101475.81;16128521;19;130106;-46
2023/01/20 16:48:33;;;;;;;16.33;1.63;;;;;;;19.20;32.71;101480.50;16127252;19;131323;-46
2023/01/20 16:53:55;;;;;;;11.60;2.03;;;;;;;19.20;32.96;101488.81;16125754;19;129725;-46
2023/01/20 16:59:17;;;;;;;15.13;2.38;;;;;;;19.22;32.33;101500.56;16126656;19;129835;-51
2023/01/20 17:04:39;;;;;;;14.10;1.95;;;;;;;19.32;31.91;101505.53;16128011;19;131439;-49
2023/01/20 17:10:01;;;;;;;15.27;2.50;;;;;;;19.45;31.74;101518.34;16126377;19;129553;-48
2023/01/20 17:15:23;;;;;;;14.25;1.98;;;;;;;19.56;31.36;101533.34;16126533;19;130786;-52
2023/01/20 17:20:45;;;;;;;11.73;2.15;;;;;;;19.60;30.73;101551.19;16127902;19;130332;-50
2023/01/20 17:26:08;;;;;;;12.75;2.25;;;;;;;19.66;30.81;101555.81;16125809;19;130793;-51
2023/01/20 17:31:34;;;;;;;11.57;1.85;;;;;;;19.74;30.86;101578.75;16122456;19;129261;-50
2023/01/20 17:36:56;;;;;;;7.55;1.92;;;;;;;19.77;30.77;101600.50;16126645;19;128975;-49
2023/01/20 17:42:18;;;;;;;7.25;1.85;;;;;;;19.74;30.55;101598.19;16126682;19;131279;-48
2023/01/20 17:47:39;;;;;;;5.93;1.80;;;;;;;19.66;30.54;101604.91;16124953;19;129937;-57
2023/01/20 17:53:01;;;;;;;7.03;1.77;;;;;;;19.55;30.69;101606.59;16125388;19;130909;-56
2023/01/20 17:58:23;;;;;;;9.55;1.40;;;;;;;19.45;30.83;101622.94;16122497;19;129932;-54
2023/01/20 18:03:47;;;;;;;2.75;1.50;;;;;;;19.37;30.84;101636.06;16124338;19;130374;-57
2023/01/20 18:09:12;;;;;;;4.00;1.40;;;;;;;19.38;30.67;101653.59;16122028;19;130113;-56
2023/01/20 18:14:34;;;;;;;4.50;1.45;;;;;;;19.45;30.97;101665.44;16117041;19;131222;-56
2023/01/20 18:19:55;;;;;;;3.22;1.08;;;;;;;19.64;30.67;101676.47;16120253;19;129488;-47
2023/01/20 18:25:17;;;;;;;1.77;1.30;;;;;;;20.02;30.27;101691.97;16121958;19;130550;-49
2023/01/20 18:30:39;;;;;;;1.77;1.10;;;;;;;20.49;29.79;101702.34;16125114;19;129890;-48
2023/01/20 18:36:01;;;;;;;3.22;1.10;;;;;;;20.93;29.56;101707.56;16119621;19;130494;-51
2023/01/20 18:41:25;;;;;;;2.00;1.20;;;;;;;21.30;29.28;101728.69;16117823;19;130379;-56
2023/01/20 18:46:47;;;;;;;6.72;1.52;;;;;;;21.58;29.23;101741.00;16117162;19;130869;-47
2023/01/20 18:52:09;;;;;;;4.18;1.33;;;;;;;21.64;29.22;101742.81;16114075;19;129905;-46
2023/01/20 18:57:31;;;;;;;3.45;1.70;;;;;;;21.60;28.95;101761.09;16117250;19;130003;-49
2023/01/20 19:02:52;;;;;;;3.25;1.27;;;;;;;21.44;29.29;101774.66;16116471;19;130061;-52
2023/01/20 19:08:14;;;;;;;9.23;2.08;;;;;;;21.23;29.24;101792.84;16115906;19;129884;-51
2023/01/20 19:13:36;;;;;;;10.50;1.90;;;;;;;21.03;30.12;101796.00;16114101;19;129530;-49
2023/01/20 19:19:02;;;;;;;10.07;1.80;;;;;;;20.84;30.09;101814.72;16117226;19;131756;-49
2023/01/20 19:24:27;;;;;;;13.75;1.90;;;;;;;20.66;30.36;101824.81;16116665;19;130194;-51
2023/01/20 19:29:49;;;;;;;4.68;1.52;;;;;;;20.50;30.55;101834.69;16116706;19;129632;-48
2023/01/20 19:35:11;;;;;;;2.20;1.50;;;;;;;20.36;30.79;101845.16;16114638;19;129488;-48
2023/01/20 19:40:32;;;;;;;6.70;1.80;;;;;;;20.22;30.88;101852.81;16112984;19;130058;-49
2023/01/20 19:45:54;;;;;;;8.65;2.20;;;;;;;20.11;31.26;101870.28;16115747;19;132568;-50
2023/01/20 19:51:18;;;;;;;10.48;1.88;;;;;;;20.04;31.19;101878.69;16118858;19;129639;-51
2023/01/20 19:56:40;;;;;;;7.07;1.83;;;;;;;19.90;31.73;101899.34;16133539;19;129559;-50
2023/01/20 20:02:02;;;;;;;7.00;1.88;;;;;;;19.84;31.51;101906.66;16132863;19;129110;-49
2023/01/20 20:07:24;;;;;;;9.50;1.60;;;;;;;19.88;31.64;101913.47;16129392;19;130842;-49
2023/01/20 20:12:45;;;;;;;5.88;1.85;;;;;;;20.02;31.08;101918.91;16130762;19;130369;-50
2023/01/20 20:18:08;;;;;;;11.73;1.58;;;;;;;20.12;31.01;101949.75;16131769;19;130398;-48
2023/01/20 20:23:30;;;;;;;15.27;1.95;;;;;;;20.20;30.66;101959.72;16126104;19;129828;-49
2023/01/20 20:28:51;;;;;;;12.43;2.10;;;;;;;20.26;30.86;101967.97;16130069;19;130274;-48
2023/01/20 20:34:16;;;;;;;7.68;1.50;;;;;;;20.28;30.46;101979.72;16127549;19;129544;-56
2023/01/20 20:39:38;;;;;;;6.60;1.53;;;;;;;20.26;30.73;101984.66;16128057;19;129383;-56
2023/01/20 20:45:00;;;;;;;11.40;1.80;;;;;;;20.34;30.95;101999.31;16131176;19;130126;-57
2023/01/20 20:50:22;;;;;;;4.72;1.48;;;;;;;20.57;30.88;102007.78;16128255;19;130759;-59
2023/01/20 20:55:44;;;;;;;5.20;1.17;;;;;;;20.96;30.61;102020.56;16128039;19;129373;-49
2023/01/20 21:01:11;;;;;;;7.50;1.50;;;;;;;21.32;30.59;102036.31;16127154;19;130913;-51
2023/01/20 21:06:33;;;;;;;6.07;1.50;;;;;;;21.47;30.16;102041.44;16122247;19;129575;-59
2023/01/20 21:11:55;;;;;;;7.60;1.20;;;;;;;21.57;30.26;102056.72;16126848;19;131550;-55
2023/01/20 21:17:16;;;;;;;2.97;1.13;;;;;;;21.54;30.30;102060.84;16125438;19;130123;-52
2023/01/20 21:22:38;;;;;;;3.90;1.48;;;;;;;21.47;30.45;102079.56;16128914;19;130709;-56
2023/01/20 21:28:00;;;;;;;7.97;1.67;;;;;;;21.40;30.13;102085.22;16124449;19;129587;-47
2023/01/20 21:33:22;;;;;;;10.27;1.98;;;;;;;21.30;30.25;102108.06;16120326;19;130507;-49
2023/01/20 21:38:45;;;;;;;9.23;2.20;;;;;;;21.19;30.57;102106.09;16120222;19;129455;-53
2023/01/20 21:55:32;;;;;;;16.92;2.55;;;;;;;20.70;30.89;102134.69;16115554;19;130829;-53
2023/01/20 22:00:54;;;;;;;7.57;2.40;;;;;;;20.53;30.70;102142.78;16120840;19;130626;-49
2023/01/20 22:06:16;;;;;;;6.82;2.05;;;;;;;20.37;30.74;102149.75;16113263;19;129583;-51
2023/01/20 22:11:37;;;;;;;6.32;1.75;;;;;;;20.23;30.80;102170.44;16114175;19;132515;-51
2023/01/20 22:16:59;;;;;;;6.68;1.88;;;;;;;20.09;30.86;102178.88;16112922;19;129599;-50
2023/01/20 22:22:22;;;;;;;5.35;1.98;;;;;;;19.97;30.93;102188.97;16120231;19;130068;-49
2023/01/20 22:27:46;;;;;;;10.93;2.17;;;;;;;19.82;31.43;102194.84;16122011;19;131240;-50
2023/01/20 22:33:08;;;;;;;7.80;2.40;;;;;;;19.67;31.11;102201.56;16120540;19;130083;-50
2023/01/20 22:38:30;;;;;;;5.18;2.58;;;;;;;19.55;31.36;102208.91;16121808;19;130026;-53
2023/01/20 22:43:52;;;;;;;2.97;1.88;;;;;;;19.46;31.18;102216.63;16120428;19;129499;-49
2023/01/20 22:49:14;;;;;;;3.55;2.00;;;;;;;19.35;31.11;102220.09;16121346;19;131795;-53
2023/01/20 22:54:36;;;;;;;4.30;2.13;;;;;;;19.26;31.33;102238.91;16118115;19;130644;-51
2023/01/20 22:59:57;;;;;;;5.28;2.15;;;;;;;19.15;31.06;102251.47;16119478;19;129561;-51
2023/01/20 23:05:19;;;;;;;2.88;1.92;;;;;;;19.08;31.11;102268.13;16118234;19;129891;-50
2023/01/20 23:10:47;;;;;;;3.40;1.80;;;;;;;19.01;31.38;102277.56;16117717;19;129753;-52
2023/01/20 23:16:13;;;;;;;3.25;2.47;;;;;;;18.94;31.30;102288.66;16117060;19;130588;-50
2023/01/20 23:21:35;;;;;;;4.32;2.03;;;;;;;18.86;31.08;102305.50;16117778;19;131605;-50
2023/01/20 23:26:57;;;;;;;3.40;2.33;;;;;;;18.78;31.23;102309.34;16124021;19;129543;-49
2023/01/20 23:32:19;;;;;;;2.95;2.60;;;;;;;18.72;31.37;102322.13;16131524;19;130493;-51
2023/01/20 23:37:41;;;;;;;5.18;3.08;;;;;;;18.67;30.97;102326.63;16133649;19;130328;-53
2023/01/20 23:43:03;;;;;;;4.60;3.03;;;;;;;18.58;31.27;102328.75;16136726;19;131430;-49
2023/01/20 23:48:25;;;;;;;3.25;2.72;;;;;;;18.54;31.11;102341.31;16132173;19;129722;-52
2023/01/20 23:53:47;;;;;;;3.97;2.92;;;;;;;18.49;30.99;102349.41;16133845;19;129498;-52
2023/01/20 23:59:09;;;;;;;6.47;3.17;;;;;;;18.44;31.17;102353.69;16134211;19;129662;-52
